Latest Weather Observations for Kingaroy

IDQ60801

Issued at 3:32 pm EST Tuesday 28 July 2015 (issued every 30 minutes, with the page automatically refreshed every 10 minutes)

About weather observations | Map of weather stations | Latest weather observations for QLD | Other Formats
Station Details ID: 040922 Name: KINGAROY AIRPORT Lat: -26.57 Lon: 151.84 Height: 433.67 m
Data from the previous 72 hours. | See also: Recent months at Kingaroy
Date/Time
EST
Temp
°C
App
Temp
°C
Dew
Point
Rel
Hum
%
Delta-T
°C
Wind Press
QNH
hPa
Press
MSL
hPa
Rain
since 9 am
mm
Dir
 
Spd
km/h
Gust
km/h
Spd
kts
Gust
kts
28/03:30pm 18.5 16.1 5.4 42 6.5 N 7 13 4 7 1027.5 1027.5 0.0
28/03:00pm 18.2 15.8 5.4 43 6.3 E 7 15 4 8 1027.4 1027.4 0.0
28/02:30pm 17.2 14.7 6.4 49 5.4 SSE 9 15 5 8 1027.5 1027.5 0.0
28/02:00pm 18.8 16.3 6.6 45 6.2 ENE 9 17 5 9 1027.6 1027.6 0.0
28/01:30pm 17.3 14.1 6.8 50 5.3 E 13 20 7 11 1027.9 1027.9 0.0
28/01:00pm 18.6 15.2 7.7 49 5.6 E 15 24 8 13 1028.3 1028.4 0.0
28/12:30pm 17.7 14.4 8.0 53 5.1 ESE 15 24 8 13 1028.8 1028.8 0.0
28/12:00pm 17.1 13.2 7.2 52 5.0 ESE 17 24 9 13 1029.2 1029.2 0.0
28/11:30am 16.0 12.1 7.2 56 4.5 ESE 17 24 9 13 1029.6 1029.6 0.0
28/11:00am 16.8 13.0 7.7 55 4.7 ESE 17 26 9 14 1029.9 1029.9 0.0
28/10:30am 15.7 11.4 7.0 56 4.4 ESE 19 30 10 16 1030.1 1030.2 0.0
28/10:00am 14.5 10.4 6.1 57 4.1 ESE 17 24 9 13 1030.2 1030.3 0.0
28/09:30am 13.9 9.6 5.3 56 4.1 S 17 22 9 12 1030.3 1030.4 0.0
28/09:00am 12.0 7.6 2.7 53 4.1 SSE 15 20 8 11 1030.2 1030.3 0.0
28/08:30am 10.6 6.5 2.2 56 3.7 SSE 13 17 7 9 1029.9 1029.9 0.0
28/08:00am 8.5 5.5 2.1 64 2.7 SSW 7 15 4 8 1029.6 1029.6 0.0
28/07:30am 5.3 3.5 1.1 74 1.7 CALM 0 0 0 0 1029.6 1029.6 0.0
28/07:00am 4.2 2.2 0.2 75 1.5 CALM 0 0 0 0 1029.1 1029.1 0.0
28/06:30am 4.4 1.3 0.4 75 1.6 SW 6 9 3 5 1028.6 1028.6 0.0
28/06:00am 4.8 0.8 0.6 74 1.7 S 11 13 6 7 1028.3 1028.4 0.0
28/05:30am 4.4 0.7 -0.2 72 1.8 SSE 9 13 5 7 1028.2 1028.3 0.0
28/05:00am 4.8 1.5 -0.2 70 1.9 SSE 7 11 4 6 1027.7 1027.7 0.0
28/04:30am 6.2 1.8 0.5 67 2.3 S 13 17 7 9 1027.6 1027.6 0.0
28/04:00am 5.6 1.3 1.3 74 1.7 S 13 19 7 10 1027.7 1027.7 0.0
28/03:30am 5.3 1.4 1.1 74 1.7 SSW 11 15 6 8 1027.7 1027.7 0.0
28/03:00am 5.5 0.8 1.2 74 1.7 S 15 17 8 9 1027.6 1027.6 0.0
28/02:30am 5.6 2.1 1.2 73 1.8 S 9 13 5 7 1027.6 1027.6 0.0
28/02:00am 6.1 1.9 1.6 73 1.8 S 13 19 7 10 1027.8 1027.8 0.0
28/01:30am 6.2 2.1 2.1 75 1.7 S 13 17 7 9 1028.1 1028.2 0.0
28/01:00am 4.5 0.2 1.0 78 1.4 SSW 13 15 7 8 1028.0 1028.0 0.0
28/12:30am 6.3 1.3 1.6 72 1.9 S 17 20 9 11 1028.2 1028.3 0.0
28/12:00am 7.0 2.1 1.7 69 2.2 S 17 22 9 12 1028.2 1028.3 0.0
 
Date/Time
EST
Temp
°C
App
Temp
°C
Dew
Point
Rel
Hum
%
Delta-T
°C
Wind Press
QNH
hPa
Press
MSL
hPa
Rain
since 9 am
mm
Dir
 
Spd
km/h
Gust
km/h
Spd
kts
Gust
kts
27/11:30pm 7.7 2.4 2.0 67 2.4 SSW 19 24 10 13 1028.1 1028.2 0.0
27/11:00pm 7.6 2.3 2.1 68 2.3 SSW 19 24 10 13 1028.0 1028.0 0.0
27/10:30pm 6.9 2.7 1.4 68 2.3 S 13 17 7 9 1028.0 1028.0 0.0
27/10:00pm 8.0 2.7 1.8 65 2.6 S 19 22 10 12 1028.2 1028.3 0.0
27/09:30pm 7.1 2.5 1.6 68 2.3 S 15 17 8 9 1028.2 1028.3 0.0
27/09:00pm 8.6 4.0 1.7 62 2.9 SSE 15 19 8 10 1027.9 1027.9 0.0
27/08:30pm 9.5 5.4 2.4 61 3.1 SSE 13 20 7 11 1027.6 1027.6 0.0
27/08:00pm 11.2 8.1 3.7 60 3.4 SSE 9 15 5 8 1027.2 1027.2 0.0
27/07:30pm 12.4 7.8 3.9 56 3.9 SSW 17 22 9 12 1026.8 1026.8 0.0
27/07:00pm 12.6 8.5 4.3 57 3.8 SSW 15 20 8 11 1026.5 1026.5 0.0
27/06:30pm 13.0 8.9 4.4 56 4.0 SSW 15 19 8 10 1026.2 1026.2 0.0
27/06:00pm 13.6 10.3 4.5 54 4.3 SSW 11 15 6 8 1025.6 1025.6 0.0
27/05:30pm 14.5 10.2 5.3 54 4.4 SW 17 22 9 12 1025.1 1025.1 0.0
27/05:00pm 15.3 10.5 4.9 50 5.0 SW 19 24 10 13 1024.9 1024.9 0.0
27/04:30pm 16.3 11.5 4.7 46 5.6 SW 19 30 10 16 1024.4 1024.4 0.0
27/04:00pm 16.9 12.0 5.2 46 5.7 SW 20 28 11 15 1024.1 1024.0 0.0
27/03:30pm 17.5 11.8 4.8 43 6.2 SW 24 30 13 16 1023.9 1023.8 0.0
27/03:00pm 18.6 12.9 2.9 35 7.4 SW 22 33 12 18 1023.8 1023.7 0.0
27/02:30pm 19.3 13.3 3.5 35 7.6 WSW 24 37 13 20 1023.8 1023.7 0.0
27/02:00pm 19.7 13.6 2.6 32 8.1 SW 24 33 13 18 1023.8 1023.7 0.0
27/01:30pm 19.7 13.8 3.8 35 7.7 WSW 24 35 13 19 1023.7 1023.6 0.0
27/01:00pm 19.5 14.3 3.6 35 7.7 WSW 20 35 11 19 1024.1 1024.0 0.0
27/12:30pm 19.2 13.9 3.0 34 7.7 SW 20 32 11 17 1024.6 1024.6 0.0
27/12:00pm 19.3 13.9 2.6 33 7.9 WSW 20 28 11 15 1024.9 1024.9 0.0
27/11:30am 19.1 13.9 3.3 35 7.6 SW 20 28 11 15 1025.2 1025.2 0.0
27/11:00am 19.0 13.5 4.0 37 7.2 SSW 22 32 12 17 1025.7 1025.7 0.0
27/10:30am 18.1 14.8 4.7 41 6.6 SW 11 19 6 10 1026.1 1026.0 0.0
27/10:00am 16.9 13.4 5.5 47 5.6 SW 13 22 7 12 1026.3 1026.3 0.0
27/09:30am 15.8 13.0 5.1 49 5.2 SW 9 17 5 9 1026.4 1026.4 0.0
27/09:00am 14.7 11.8 6.5 58 4.0 SSW 11 17 6 9 1026.3 1026.3 0.0
27/08:30am 12.2 10.8 9.0 81 1.6 WNW 6 7 3 4 1026.2 1026.2 0.0
27/08:00am 9.2 8.9 8.7 97 0.2 CALM 0 2 0 1 1025.9 1025.9 0.0
27/07:30am 6.1 5.1 5.8 98 0.1 CALM 0 0 0 0 1025.7 1025.7 0.0
27/07:00am 5.5 3.0 4.9 96 0.3 SSW 7 9 4 5 1025.5 1025.5 0.0
27/06:30am 5.8 4.4 5.4 97 0.2 SSW 2 7 1 4 1025.0 1025.0 0.0
27/06:00am 6.0 4.9 5.3 95 0.3 CALM 0 0 0 0 1024.7 1024.7 0.0
27/05:30am 6.9 6.1 6.3 96 0.3 CALM 0 0 0 0 1024.4 1024.4 0.0
27/05:00am 7.3 6.5 6.6 95 0.3 CALM 0 0 0 0 1024.0 1023.9 0.0
27/04:30am 7.9 7.2 6.8 93 0.5 CALM 0 0 0 0 1023.7 1023.6 0.0
27/04:00am 8.1 7.3 6.6 90 0.7 CALM 0 0 0 0 1023.7 1023.6 0.0
27/03:30am 9.2 8.7 7.8 91 0.7 CALM 0 0 0 0 1023.5 1023.5 0.0
27/03:00am 9.9 9.6 8.7 92 0.6 CALM 0 0 0 0 1023.5 1023.5 0.0
27/02:30am 10.4 10.1 8.7 89 0.9 CALM 0 0 0 0 1023.7 1023.6 0.0
27/02:00am 10.8 8.7 8.2 84 1.3 S 9 11 5 6 1023.8 1023.7 0.0
27/01:30am 12.5 10.1 9.9 84 1.4 SSE 13 15 7 8 1023.5 1023.5 0.0
27/01:00am 13.1 11.3 11.0 87 1.1 SSE 11 15 6 8 1023.5 1023.5 0.0
27/12:30am 12.6 10.5 11.3 92 0.7 S 13 13 7 7 1023.7 1023.6 0.0
27/12:00am 12.7 11.6 11.8 94 0.5 S 9 13 5 7 1023.8 1023.7 0.0
 
Date/Time
EST
Temp
°C
App
Temp
°C
Dew
Point
Rel
Hum
%
Delta-T
°C
Wind Press
QNH
hPa
Press
MSL
hPa
Rain
since 9 am
mm
Dir
 
Spd
km/h
Gust
km/h
Spd
kts
Gust
kts
26/11:30pm 12.3 10.9 11.0 92 0.7 SSW 9 9 5 5 1023.5 1023.5 0.0
26/11:00pm 12.9 12.0 11.5 91 0.8 S 7 9 4 5 1023.5 1023.5 0.0
26/10:30pm 13.5 14.3 12.6 94 0.5 CALM 0 0 0 0 1023.4 1023.4 0.0
26/10:00pm 12.8 13.2 11.4 91 0.8 CALM 0 0 0 0 1023.4 1023.4 0.0
26/09:30pm 12.6 12.9 10.8 89 1.0 CALM 0 0 0 0 1023.3 1023.3 0.0
26/09:00pm 13.2 13.2 11.1 87 1.1 E 2 7 1 4 1023.1 1023.1 0.0
26/08:30pm 14.0 13.3 11.9 87 1.2 E 7 9 4 5 1022.9 1022.9 0.0
26/08:00pm 15.3 16.1 12.4 83 1.6 CALM 0 4 0 2 1022.5 1022.5 0.0
26/07:30pm 17.1 16.9 13.0 77 2.3 WSW 6 11 3 6 1022.4 1022.4 0.0
26/07:00pm 18.2 17.4 14.1 77 2.4 WSW 11 17 6 9 1021.9 1021.8 0.0
26/06:30pm 18.7 17.6 14.4 76 2.5 WSW 13 19 7 10 1021.5 1021.4 0.0
26/06:00pm 19.2 17.1 14.7 75 2.7 WSW 19 22 10 12 1020.9 1020.9 0.0
26/05:30pm 20.2 17.7 15.2 73 3.0 SW 22 33 12 18 1020.7 1020.7 0.0
26/05:00pm 22.0 20.2 15.6 67 3.9 WSW 19 28 10 15 1020.1 1020.0 0.0
26/04:30pm 23.4 22.0 15.5 61 4.8 WSW 17 28 9 15 1019.7 1019.6 0.0
26/04:00pm 23.9 22.8 15.4 59 5.2 W 15 20 8 11 1019.3 1019.2 0.0
26/03:30pm 23.7 21.6 15.2 59 5.2 WSW 20 30 11 16 1019.2 1019.1 0.0
26/03:00pm 24.3 22.2 15.2 57 5.6 W 20 32 11 17 1019.1 1019.0 0.0
26/02:30pm 25.3 23.4 15.3 54 6.1 WSW 19 32 10 17 1018.9 1018.8 0.0
26/02:00pm 25.4 22.9 15.1 53 6.3 W 22 32 12 17 1018.9 1018.8 0.0
26/01:30pm 25.2 23.8 15.5 55 6.0 WNW 17 22 9 12 1019.2 1019.1 0.0
26/01:00pm 25.1 21.9 15.4 55 6.0 NW 26 39 14 21 1019.6 1019.5 0.0
26/12:30pm 25.6 23.6 15.6 54 6.2 WNW 20 30 11 16 1020.1 1020.0 0.0
26/12:00pm 24.6 23.2 15.5 57 5.6 W 17 26 9 14 1020.6 1020.6 0.0
26/11:30am 24.3 22.0 15.8 59 5.2 NW 22 32 12 17 1021.1 1021.1 0.0
26/11:00am 24.0 22.2 15.5 59 5.2 NW 19 28 10 15 1021.7 1021.6 0.0
26/10:30am 22.4 20.9 15.3 64 4.3 NW 17 24 9 13 1022.5 1022.5 0.0
26/10:00am 21.3 19.2 15.2 68 3.7 NW 20 28 11 15 1022.7 1022.7 0.0
26/09:30am 19.8 18.0 14.4 71 3.2 NNW 17 22 9 12 1022.7 1022.7 0.0
26/09:00am 17.7 16.5 14.0 79 2.1 NW 13 19 7 10 1023.1 1023.1 0.0
26/08:30am 15.3 16.3 13.3 88 1.1 CALM 0 0 0 0 1023.0 1023.0 0.0
26/08:00am 13.2 13.2 12.4 95 0.4 ENE 4 7 2 4 1022.8 1022.8 0.0
26/07:30am 10.7 10.9 10.4 98 0.2 CALM 0 0 0 0 1022.8 1022.8 0.0
26/07:00am 9.1 6.7 8.5 96 0.3 SSW 11 11 6 6 1022.6 1022.6 0.0
26/06:30am 9.2 8.5 8.4 95 0.4 SSE 2 9 1 5 1022.0 1021.9 0.0
26/06:00am 9.3 8.9 8.4 94 0.4 CALM 0 0 0 0 1021.8 1021.7 0.0
26/05:30am 9.7 9.5 9.1 96 0.3 CALM 0 0 0 0 1022.0 1021.9 0.0
26/05:00am 9.8 9.6 9.0 95 0.4 CALM 0 0 0 0 1021.9 1021.8 0.0
26/04:30am 9.4 9.0 8.2 92 0.6 CALM 0 0 0 0 1022.1 1022.0 0.0
26/04:00am 9.8 9.5 8.7 93 0.5 CALM 0 0 0 0 1021.9 1021.8 0.0
26/03:30am 10.2 10.1 9.3 94 0.5 CALM 0 0 0 0 1022.0 1021.9 0.0
26/03:00am 10.5 10.4 9.3 92 0.6 CALM 0 0 0 0 1022.3 1022.3 0.0
26/02:30am 11.0 11.1 10.1 94 0.5 CALM 0 0 0 0 1022.5 1022.5 0.0
26/02:00am 10.1 8.7 9.5 96 0.3 S 7 9 4 5 1022.8 1022.8 0.0
26/01:30am 9.7 9.3 8.3 91 0.7 CALM 0 0 0 0 1022.7 1022.7 0.0
26/01:00am 10.1 10.0 9.3 95 0.4 CALM 0 4 0 2 1022.6 1022.6 0.0
26/12:30am 9.4 9.0 8.3 93 0.5 CALM 0 0 0 0 1022.8 1022.8 0.0
26/12:00am 9.9 9.6 8.7 92 0.6 CALM 0 0 0 0 1022.8 1022.8 0.0
 
Date/Time
EST
Temp
°C
App
Temp
°C
Dew
Point
Rel
Hum
%
Delta-T
°C
Wind Press
QNH
hPa
Press
MSL
hPa
Rain
since 9 am
mm
Dir
 
Spd
km/h
Gust
km/h
Spd
kts
Gust
kts
25/11:30pm 9.9 9.6 8.5 91 0.7 CALM 0 0 0 0 1023.0 1023.0 0.0
25/11:00pm 10.5 9.2 9.1 91 0.7 S 6 7 3 4 1023.1 1023.1 0.0
25/10:30pm 10.8 9.0 9.6 92 0.6 S 9 9 5 5 1023.3 1023.3 0.0
25/10:00pm 11.2 10.0 9.5 89 0.9 SE 6 7 3 4 1023.2 1023.2 0.0
25/09:30pm 10.9 9.6 9.2 89 0.9 SSE 6 7 3 4 1023.5 1023.5 0.0
25/09:00pm 11.3 11.1 9.0 86 1.2 CALM 0 0 0 0 1023.2 1023.2 0.0
25/08:30pm 12.3 12.2 9.3 82 1.5 CALM 0 0 0 0 1022.9 1022.9 0.0
25/08:00pm 12.8 11.5 9.1 78 1.9 E 6 7 3 4 1022.6 1022.6 0.0
25/07:30pm 13.2 13.1 9.3 77 2.0 CALM 0 6 0 3 1022.5 1022.5 0.0
25/07:00pm 14.4 12.7 9.8 74 2.4 E 9 9 5 5 1022.6 1022.6 0.0
25/06:30pm 15.4 15.1 10.0 70 2.9 ESE 2 7 1 4 1022.3 1022.3 0.0
25/06:00pm 17.1 17.1 9.8 62 3.9 CALM 0 0 0 0 1021.8 1021.7 0.0
25/05:30pm 19.2 18.2 10.2 56 4.9 WNW 6 7 3 4 1021.3 1021.2 0.0
25/05:00pm 19.8 18.1 10.0 53 5.4 NW 9 11 5 6 1020.9 1020.9 0.0
25/04:30pm 22.4 20.5 10.5 47 6.7 NW 11 15 6 8 1020.3 1020.3 0.0
25/04:00pm 22.9 20.7 10.7 46 6.9 NW 13 19 7 10 1020.3 1020.3 0.0

Other Formats:

Comma delimited format used in spreadsheet applications
http://www.bom.gov.au/fwo/IDQ60801/IDQ60801.94549.axf

JavaScript Object Notation format (JSON) in row-major order
http://www.bom.gov.au/fwo/IDQ60801/IDQ60801.94549.json